Estación de Tierras Nobles

Ultimos registro cada 15 minutos 95
Estación Fecha / Hora Temperatura Humedad Lluvia Velocidad Dirección Radiación Presion
95 Tierras Nobles 08-05-2026 23:30 8,7 73 0 2,2 203 0 1022,8
94 Tierras Nobles 08-05-2026 23:15 8,5 72 0 3,6 115 0 1022,8
93 Tierras Nobles 08-05-2026 23:00 8,4 70 0 2,7 194 0 1022,7
92 Tierras Nobles 08-05-2026 22:45 8,4 69 0 1,8 170 0 1022,5
91 Tierras Nobles 08-05-2026 22:30 8,3 68 0 2,2 203 0 1022,4
90 Tierras Nobles 08-05-2026 22:15 8,3 67 0 2,2 184 0 1022,2
89 Tierras Nobles 08-05-2026 22:00 8,1 65 0 1,8 211 0 1022,1
88 Tierras Nobles 08-05-2026 21:45 8 65 0 1,3 203 0 1021,8
87 Tierras Nobles 08-05-2026 21:30 7,8 63 0 1,8 204 0 1021,9
86 Tierras Nobles 08-05-2026 21:15 7,6 63 0 2,2 208 0 1021,8
85 Tierras Nobles 08-05-2026 21:00 7,6 62 0 0,4 209 0 1021,7
84 Tierras Nobles 08-05-2026 20:45 7,6 62 0 1,8 214 0 1021,8
83 Tierras Nobles 08-05-2026 20:30 7,8 61 0 1,3 194 0 1021,9
82 Tierras Nobles 08-05-2026 20:15 7,8 61 0 2,2 204 0 1021,8
81 Tierras Nobles 08-05-2026 20:00 7,8 61 0 1,8 212 0 1021,7
80 Tierras Nobles 08-05-2026 19:45 7,9 61 0 1,8 199 0 1021,4
79 Tierras Nobles 08-05-2026 19:30 7,8 62 0 1,3 215 0 1021,2
78 Tierras Nobles 08-05-2026 19:15 8,1 64 0 0,9 209 0 1021
77 Tierras Nobles 08-05-2026 19:00 8,4 65 0 0,4 208 0 1020,9
76 Tierras Nobles 08-05-2026 18:45 9 65 0 0,9 207 0 1020,8
75 Tierras Nobles 08-05-2026 18:30 9,6 65 0 1,3 199 0 1020,6
74 Tierras Nobles 08-05-2026 18:15 9,9 63 0 1,3 207 0 1020,9
73 Tierras Nobles 08-05-2026 18:00 10,2 65 0 1,3 206 0 1020,9
72 Tierras Nobles 08-05-2026 17:45 10,4 65 0 0 185 0 1020,8
71 Tierras Nobles 08-05-2026 17:30 10,7 65 0 0 180 14 1020,5
70 Tierras Nobles 08-05-2026 17:15 10,8 66 0 0 145 28 1020,4
69 Tierras Nobles 08-05-2026 17:00 11,1 67 0 0 155 37 1020,4
68 Tierras Nobles 08-05-2026 16:45 11,3 68 0 0 153 30 1020,1
67 Tierras Nobles 08-05-2026 16:30 11,6 69 0 0 153 25 1019,8
66 Tierras Nobles 08-05-2026 16:15 11,8 70 0 0 107 23 1019,7
65 Tierras Nobles 08-05-2026 16:00 11,9 71 0 0 104 46 1019,5
64 Tierras Nobles 08-05-2026 15:45 11,9 70 0 0 95 65 1019,3
63 Tierras Nobles 08-05-2026 15:30 11,8 68 0 0 107 116 1019,3
62 Tierras Nobles 08-05-2026 15:15 11,5 67 0 0 10 176 1018,9
61 Tierras Nobles 08-05-2026 15:00 11,4 68 0 0 11 105 1019,1
60 Tierras Nobles 08-05-2026 14:45 11,3 67 0 0 11 120 1019
59 Tierras Nobles 08-05-2026 14:30 10,9 63 0 0 22 250 1018,9
58 Tierras Nobles 08-05-2026 14:15 10,7 64 0 0 344 207 1019
57 Tierras Nobles 08-05-2026 14:00 10,4 62 0 0 279 178 1019,2
56 Tierras Nobles 08-05-2026 13:45 10,2 62 0 0 30 144 1019,1
55 Tierras Nobles 08-05-2026 13:30 9,8 60 0 0,4 30 158 1019,3
54 Tierras Nobles 08-05-2026 13:15 9,4 58 0 0 338 202 1019,3
53 Tierras Nobles 08-05-2026 13:00 9 57 0 0,9 267 255 1019,6
52 Tierras Nobles 08-05-2026 12:45 8,7 56 0 0 297 211 1019,9
51 Tierras Nobles 08-05-2026 12:30 8,3 56 0 0 24 113 1019,9
50 Tierras Nobles 08-05-2026 12:15 8,1 56 0 0 53 132 1019,8
49 Tierras Nobles 08-05-2026 12:00 8 55 0 0 24 79 1019,9
48 Tierras Nobles 08-05-2026 11:45 7,8 56 0 0,9 10 111 1019,9
47 Tierras Nobles 08-05-2026 11:30 7,7 55 0 0 22 86 1020
46 Tierras Nobles 08-05-2026 11:15 7,6 56 0 0 22 74 1019,9
45 Tierras Nobles 08-05-2026 11:00 7,4 56 0 0 58 104 1020,1
44 Tierras Nobles 08-05-2026 10:45 7,3 56 0 0 30 93 1020
43 Tierras Nobles 08-05-2026 10:30 7,2 56 0 0 30 67 1020,3
42 Tierras Nobles 08-05-2026 10:15 7,1 56 0 0 12 95 1020,4
41 Tierras Nobles 08-05-2026 10:00 7,1 56 0 1,3 29 88 1020,3
40 Tierras Nobles 08-05-2026 09:45 6,9 56 0 0 17 146 1020,3
39 Tierras Nobles 08-05-2026 09:30 6,7 57 0,2 0 20 65 1020,4
38 Tierras Nobles 08-05-2026 09:15 6,7 57 0 1,3 46 51 1020,3
37 Tierras Nobles 08-05-2026 09:00 6,6 58 0 0 38 46 1020,3
36 Tierras Nobles 08-05-2026 08:45 6,6 58 0 0 26 30 1020,1
35 Tierras Nobles 08-05-2026 08:30 6,5 58 0 0 20 54 1020,1
34 Tierras Nobles 08-05-2026 08:15 6,4 59 0 0 20 23 1019,8
33 Tierras Nobles 08-05-2026 08:00 6,4 59 0 0 51 5 1019,7
32 Tierras Nobles 08-05-2026 07:45 6,4 59 0,2 0 349 0 1019,5
31 Tierras Nobles 08-05-2026 07:30 6,5 59 0,4 0 348 0 1019,5
30 Tierras Nobles 08-05-2026 07:15 6,5 59 0,2 0 348 0 1019,6
29 Tierras Nobles 08-05-2026 07:00 6,6 60 0,2 0 32 0 1019,5
28 Tierras Nobles 08-05-2026 06:45 6,6 60 0,2 0,4 54 0 1019,2
27 Tierras Nobles 08-05-2026 06:30 6,6 60 0 1,3 8 0 1019,4
26 Tierras Nobles 08-05-2026 06:15 6,7 60 0 0,9 32 0 1019,4
25 Tierras Nobles 08-05-2026 06:00 6,7 60 0 1,8 36 0 1019,4
24 Tierras Nobles 08-05-2026 05:45 6,8 60 0,2 0,9 17 0 1019,6
23 Tierras Nobles 08-05-2026 05:30 6,9 60 0,6 0,9 24 0 1019,9
22 Tierras Nobles 08-05-2026 05:15 7 60 0,2 0 32 0 1019,8
21 Tierras Nobles 08-05-2026 05:00 7,1 61 0 0,4 32 0 1019,7
20 Tierras Nobles 08-05-2026 04:45 7,2 62 0,2 0,4 13 0 1019,6
19 Tierras Nobles 08-05-2026 04:30 7,3 62 0 1,3 61 0 1019,8
18 Tierras Nobles 08-05-2026 04:15 7,4 63 0,4 0,9 14 0 1020,1
17 Tierras Nobles 08-05-2026 04:00 7,6 64 0 0,4 39 0 1020,3
16 Tierras Nobles 08-05-2026 03:45 7,8 64 0,2 0,9 27 0 1020,1
15 Tierras Nobles 08-05-2026 03:30 8,1 65 0,4 0 22 0 1020,6
14 Tierras Nobles 08-05-2026 03:15 8,1 65 0 0 34 0 1021
13 Tierras Nobles 08-05-2026 03:00 8,1 65 0 0,4 35 0 1020,9
12 Tierras Nobles 08-05-2026 02:45 8,1 65 0 0 93 0 1020,8
11 Tierras Nobles 08-05-2026 02:30 8,1 65 0 0 101 0 1020,9
10 Tierras Nobles 08-05-2026 02:15 8,1 65 0 0 101 0 1021,4
9 Tierras Nobles 08-05-2026 02:00 8,1 66 0 0 101 0 1021,5
8 Tierras Nobles 08-05-2026 01:45 8 66 0 0 101 0 1021,4
7 Tierras Nobles 08-05-2026 01:30 8 66 0 0 115 0 1021,7
6 Tierras Nobles 08-05-2026 01:15 8,1 66 0 0 115 0 1022,2
5 Tierras Nobles 08-05-2026 01:00 8,1 66 0 0 115 0 1022,5
4 Tierras Nobles 08-05-2026 00:45 8,1 66 0 0 116 0 1022,3
3 Tierras Nobles 08-05-2026 00:30 8,1 66 0 0 115 0 1022,5
2 Tierras Nobles 08-05-2026 00:15 8 66 0 0 116 0 1022,6
1 Tierras Nobles 08-05-2026 00:00 7,9 66 0 0 127 0 1022,9